Time;durP1;ratioP1;P1;durP2;ratioP2;P2;SDS_P1;SDS_P2;PMS_P1;PMS_P2;Temp;Humidity;BMP_temperature;BMP_pressure;BME280_temperature;BME280_humidity;BME280_pressure;Samples;Min_cycle;Max_cycle;Signal;HPM_P1;HPM_P2
2023/10/22 00:00:07;;;;;;;0.00;0.00;;;10.90;99.90;;;;;;5069941;28;20224;-53
2023/10/22 00:02:35;;;;;;;0.00;0.00;;;10.90;99.90;;;;;;5071189;28;20209;-53
2023/10/22 00:05:02;;;;;;;0.00;0.00;;;10.90;99.90;;;;;;5069342;28;20248;-53
2023/10/22 00:07:29;;;;;;;0.10;0.00;;;10.90;99.90;;;;;;5071088;28;20224;-53
2023/10/22 00:09:56;;;;;;;0.00;0.00;;;10.90;99.90;;;;;;5071276;28;20229;-53
2023/10/22 00:12:23;;;;;;;0.00;0.00;;;10.90;99.90;;;;;;5069238;28;20705;-53
2023/10/22 00:14:50;;;;;;;0.30;0.30;;;10.90;99.90;;;;;;5069632;28;20675;-53
2023/10/22 00:17:17;;;;;;;0.50;0.20;;;10.90;99.90;;;;;;5062213;28;20209;-53
2023/10/22 00:19:46;;;;;;;0.77;0.10;;;11.00;99.90;;;;;;5070800;28;20233;-53
2023/10/22 00:22:14;;;;;;;0.00;0.00;;;11.00;99.90;;;;;;5071072;28;20560;-53
2023/10/22 00:24:41;;;;;;;0.00;0.00;;;11.00;99.90;;;;;;5069225;28;20203;-53
2023/10/22 00:27:08;;;;;;;0.83;0.00;;;11.00;99.90;;;;;;5070919;28;20224;-53
2023/10/22 00:29:35;;;;;;;1.10;0.03;;;11.00;99.90;;;;;;5067424;28;20276;-53
2023/10/22 00:32:02;;;;;;;0.10;0.00;;;11.00;99.90;;;;;;5064678;28;20276;-53
2023/10/22 00:34:29;;;;;;;0.00;0.00;;;11.00;99.90;;;;;;5070816;28;20208;-53
2023/10/22 00:36:57;;;;;;;0.97;0.00;;;11.00;99.90;;;;;;5069845;28;20219;-53
2023/10/22 00:39:24;;;;;;;2.40;0.10;;;10.90;99.90;;;;;;5070779;28;20221;-53
2023/10/22 00:41:51;;;;;;;0.00;0.00;;;10.90;99.90;;;;;;5070974;28;20197;-53
2023/10/22 00:44:18;;;;;;;0.00;0.00;;;10.90;99.90;;;;;;5070487;28;20235;-53
2023/10/22 00:46:47;;;;;;;0.17;0.00;;;11.00;99.90;;;;;;5068835;28;20229;-53
2023/10/22 00:49:14;;;;;;;0.03;0.00;;;11.00;99.90;;;;;;5068688;28;20224;-53
2023/10/22 00:51:41;;;;;;;0.00;0.00;;;10.90;99.90;;;;;;5069926;28;20271;-53
2023/10/22 00:54:11;;;;;;;0.00;0.00;;;11.00;99.90;;;;;;5070457;28;20208;-53
2023/10/22 00:56:38;;;;;;;0.00;0.00;;;11.00;99.90;;;;;;5069823;28;20201;-53
2023/10/22 00:59:05;;;;;;;0.00;0.00;;;10.90;99.90;;;;;;5070831;28;20223;-53
2023/10/22 01:01:32;;;;;;;0.00;0.00;;;10.90;99.90;;;;;;5069841;28;20643;-53
2023/10/22 01:03:59;;;;;;;0.00;0.00;;;10.90;99.90;;;;;;5069290;28;20200;-53
2023/10/22 01:06:27;;;;;;;2.17;0.30;;;10.90;99.90;;;;;;5068510;28;20266;-53
2023/10/22 01:08:55;;;;;;;1.20;0.20;;;10.90;99.90;;;;;;5070404;28;20220;-53
2023/10/22 01:11:23;;;;;;;0.20;0.07;;;10.90;99.90;;;;;;5070609;28;20642;-53
2023/10/22 01:13:50;;;;;;;0.00;0.00;;;10.90;99.90;;;;;;5068303;28;20197;-53
2023/10/22 01:16:17;;;;;;;0.40;0.13;;;10.90;99.90;;;;;;5070531;28;20200;-53
2023/10/22 01:18:44;;;;;;;0.10;0.10;;;10.90;99.90;;;;;;5070162;28;20230;-53
2023/10/22 01:21:12;;;;;;;0.20;0.20;;;10.90;99.90;;;;;;5070496;28;20242;-53
2023/10/22 01:23:40;;;;;;;0.40;0.13;;;10.90;99.90;;;;;;5069166;28;20280;-53
2023/10/22 01:26:08;;;;;;;1.60;0.40;;;10.80;99.90;;;;;;5070033;28;20200;-53
2023/10/22 01:28:35;;;;;;;0.30;0.20;;;10.80;99.90;;;;;;5061199;28;20229;-53
2023/10/22 01:31:10;;;;;;;1.03;0.50;;;10.80;99.90;;;;;;5070479;28;20226;-53
2023/10/22 01:33:37;;;;;;;0.40;0.30;;;10.80;99.90;;;;;;5068942;28;20208;-53
2023/10/22 01:36:04;;;;;;;0.30;0.23;;;10.60;99.90;;;;;;5070245;28;20195;-53
2023/10/22 01:38:31;;;;;;;0.63;0.33;;;10.60;99.90;;;;;;5070419;28;20699;-53
2023/10/22 01:40:59;;;;;;;2.33;1.53;;;10.60;99.90;;;;;;5071986;28;20576;-53
2023/10/22 01:43:26;;;;;;;0.30;0.23;;;10.60;99.90;;;;;;5073075;28;20671;-53
2023/10/22 01:45:53;;;;;;;1.27;0.30;;;10.60;99.90;;;;;;5071593;28;20221;-53
2023/10/22 01:48:20;;;;;;;1.07;0.30;;;10.70;99.90;;;;;;5073411;28;20217;-53
2023/10/22 01:50:47;;;;;;;0.20;0.20;;;10.70;99.90;;;;;;5053750;28;20196;-53
2023/10/22 01:53:14;;;;;;;0.30;0.30;;;10.70;99.90;;;;;;5053438;28;20608;-53
2023/10/22 01:55:41;;;;;;;0.20;0.20;;;10.70;99.90;;;;;;5053722;28;20212;-53
2023/10/22 01:58:09;;;;;;;0.30;0.30;;;10.60;99.90;;;;;;5055443;28;20286;-53
2023/10/22 02:00:36;;;;;;;0.30;0.30;;;10.60;99.90;;;;;;5073489;28;20193;-53
2023/10/22 02:03:05;;;;;;;0.40;0.40;;;10.60;99.90;;;;;;5073160;28;20205;-53
2023/10/22 02:05:33;;;;;;;1.50;0.37;;;10.60;99.90;;;;;;5073456;28;20208;-53
2023/10/22 02:08:00;;;;;;;0.30;0.30;;;10.60;99.90;;;;;;5073593;28;20637;-53
2023/10/22 02:10:27;;;;;;;0.40;0.40;;;10.50;99.90;;;;;;5072509;28;20259;-53
2023/10/22 02:12:54;;;;;;;0.20;0.20;;;10.50;99.90;;;;;;5072279;28;20203;-53
2023/10/22 02:15:25;;;;;;;0.10;0.10;;;10.50;99.90;;;;;;5064381;28;20204;-53
2023/10/22 02:17:52;;;;;;;0.40;0.40;;;10.50;99.90;;;;;;5065359;28;20737;-53
2023/10/22 02:20:19;;;;;;;0.20;0.20;;;10.50;99.90;;;;;;5073175;28;20562;-53
2023/10/22 02:22:46;;;;;;;0.20;0.20;;;10.50;99.90;;;;;;5072805;28;20211;-53
2023/10/22 02:25:13;;;;;;;0.20;0.20;;;10.40;99.90;;;;;;5070314;28;20208;-53
2023/10/22 02:27:40;;;;;;;0.20;0.20;;;10.40;99.90;;;;;;5072992;28;20244;-53
2023/10/22 02:30:08;;;;;;;0.20;0.20;;;10.40;99.90;;;;;;5072867;28;20228;-53
2023/10/22 02:32:36;;;;;;;0.20;0.20;;;10.50;99.90;;;;;;5070442;28;20595;-53
2023/10/22 02:35:04;;;;;;;0.57;0.30;;;10.50;99.90;;;;;;5073135;28;20204;-53
2023/10/22 02:37:31;;;;;;;0.20;0.20;;;10.50;99.90;;;;;;5070877;28;20196;-53
2023/10/22 02:39:58;;;;;;;0.10;0.10;;;10.50;99.90;;;;;;5072446;28;20215;-53
2023/10/22 02:42:26;;;;;;;0.93;0.37;;;10.50;99.90;;;;;;5071770;28;20207;-53
2023/10/22 02:44:53;;;;;;;1.10;0.20;;;10.50;99.90;;;;;;5072287;28;20280;-53
2023/10/22 02:47:19;;;;;;;0.63;0.13;;;10.40;99.90;;;;;;5072500;28;20275;-53
2023/10/22 02:49:48;;;;;;;0.50;0.20;;;10.40;99.90;;;;;;5070619;28;20281;-53
2023/10/22 02:52:15;;;;;;;1.60;0.10;;;10.40;99.90;;;;;;5071857;28;20695;-53
2023/10/22 02:54:42;;;;;;;0.50;0.10;;;10.40;99.90;;;;;;5071984;28;20203;-53
2023/10/22 02:57:09;;;;;;;0.20;0.20;;;10.40;99.90;;;;;;5071684;28;20348;-53
2023/10/22 02:59:36;;;;;;;0.40;0.40;;;10.30;99.90;;;;;;5071238;28;20710;-53
2023/10/22 03:02:04;;;;;;;2.13;0.10;;;10.30;99.90;;;;;;5070033;28;20203;-53
2023/10/22 03:04:31;;;;;;;0.33;0.10;;;10.30;99.90;;;;;;5071855;28;20257;-53
2023/10/22 03:06:59;;;;;;;0.20;0.20;;;10.30;99.90;;;;;;5072314;28;20269;-53
2023/10/22 03:09:26;;;;;;;0.10;0.10;;;10.30;99.90;;;;;;5063251;28;20263;-53
2023/10/22 03:11:53;;;;;;;0.10;0.10;;;10.30;99.90;;;;;;5072169;28;20203;-53
2023/10/22 03:14:21;;;;;;;0.50;0.10;;;10.30;99.90;;;;;;5070498;28;20207;-53
2023/10/22 03:16:48;;;;;;;0.53;0.10;;;10.30;99.90;;;;;;5072082;28;20283;-53
2023/10/22 03:19:17;;;;;;;0.60;0.10;;;10.40;99.90;;;;;;5087714;22;20229;-55
2023/10/22 03:21:44;;;;;;;1.13;0.10;;;10.30;99.90;;;;;;5051383;28;20219;-55
2023/10/22 03:24:15;;;;;;;0.20;0.10;;;10.30;99.90;;;;;;5048573;28;20209;-56
2023/10/22 03:26:42;;;;;;;0.20;0.20;;;10.40;99.90;;;;;;5047979;28;20312;-55
2023/10/22 03:29:09;;;;;;;0.07;0.07;;;10.40;99.90;;;;;;5033494;28;20766;-55
2023/10/22 03:31:36;;;;;;;1.90;0.20;;;10.40;99.90;;;;;;5051252;28;20204;-55
2023/10/22 03:34:03;;;;;;;0.30;0.10;;;10.40;99.90;;;;;;5050815;28;20197;-55
2023/10/22 03:36:30;;;;;;;0.33;0.23;;;10.40;99.90;;;;;;5051178;28;20261;-55
2023/10/22 03:38:57;;;;;;;0.50;0.10;;;10.50;99.90;;;;;;5051090;28;20839;-55
2023/10/22 03:41:25;;;;;;;0.20;0.10;;;10.50;99.90;;;;;;5044041;28;20205;-56
2023/10/22 03:43:52;;;;;;;0.00;0.00;;;10.40;99.90;;;;;;5037914;28;20205;-55
2023/10/22 03:46:19;;;;;;;0.00;0.00;;;10.40;99.90;;;;;;5031180;28;20205;-55
2023/10/22 03:48:46;;;;;;;0.10;0.10;;;10.40;99.90;;;;;;5030681;28;20224;-56
2023/10/22 03:51:13;;;;;;;0.10;0.10;;;10.40;99.90;;;;;;5030849;28;20659;-55
2023/10/22 03:53:40;;;;;;;0.10;0.10;;;10.40;99.90;;;;;;5030571;28;20278;-55
2023/10/22 03:56:07;;;;;;;0.13;0.13;;;10.40;99.90;;;;;;5033017;28;20276;-56
2023/10/22 03:58:35;;;;;;;2.67;0.10;;;10.40;99.90;;;;;;5041995;28;20201;-55
2023/10/22 04:01:03;;;;;;;2.57;0.10;;;10.40;99.90;;;;;;5050542;28;20255;-55
2023/10/22 04:03:30;;;;;;;0.57;0.20;;;10.40;99.90;;;;;;5049745;28;20685;-55
2023/10/22 04:06:00;;;;;;;0.10;0.10;;;10.30;99.90;;;;;;5050490;28;20204;-55
2023/10/22 04:08:27;;;;;;;0.10;0.10;;;10.30;99.90;;;;;;5049905;28;20219;-55
2023/10/22 04:10:54;;;;;;;0.30;0.13;;;10.30;99.90;;;;;;5050559;28;20196;-55
2023/10/22 04:13:21;;;;;;;2.00;0.10;;;10.30;99.90;;;;;;5048386;28;20216;-55
2023/10/22 04:15:51;;;;;;;0.00;0.00;;;10.30;99.90;;;;;;5042027;28;20204;-55
2023/10/22 04:18:19;;;;;;;0.20;0.10;;;10.20;99.90;;;;;;5044069;28;20225;-55
2023/10/22 04:20:47;;;;;;;0.73;0.30;;;10.20;99.90;;;;;;5049858;28;20236;-55
2023/10/22 04:23:14;;;;;;;0.50;0.33;;;10.20;99.90;;;;;;5050063;28;20205;-55
2023/10/22 04:25:43;;;;;;;0.30;0.20;;;10.30;99.90;;;;;;5050331;28;20249;-55
2023/10/22 04:28:11;;;;;;;0.47;0.20;;;10.30;99.90;;;;;;5049909;28;20265;-55
2023/10/22 04:30:38;;;;;;;1.80;0.10;;;10.20;99.90;;;;;;5040213;28;20302;-55
2023/10/22 04:33:07;;;;;;;0.20;0.20;;;10.20;99.90;;;;;;5041703;28;20226;-55
2023/10/22 04:35:35;;;;;;;1.20;0.20;;;10.20;99.90;;;;;;5049832;28;20205;-56
2023/10/22 04:38:03;;;;;;;0.83;0.40;;;10.10;99.90;;;;;;5050334;28;20200;-57
2023/10/22 04:40:32;;;;;;;0.97;0.30;;;10.10;99.90;;;;;;5049928;28;20228;-56
2023/10/22 04:42:59;;;;;;;0.43;0.20;;;10.10;99.90;;;;;;5049519;28;20644;-56
2023/10/22 04:45:27;;;;;;;0.90;0.30;;;10.00;99.90;;;;;;5050035;28;20200;-55
2023/10/22 04:47:55;;;;;;;0.83;0.40;;;10.00;99.90;;;;;;5044940;28;20213;-56
2023/10/22 04:50:24;;;;;;;0.20;0.20;;;9.90;99.90;;;;;;5042167;28;20271;-56
2023/10/22 04:52:51;;;;;;;0.10;0.10;;;9.90;99.90;;;;;;5035599;28;20289;-55
2023/10/22 04:55:18;;;;;;;0.80;0.20;;;9.80;99.90;;;;;;5043768;28;20300;-56
2023/10/22 04:57:45;;;;;;;0.27;0.27;;;9.80;99.90;;;;;;5049761;28;20216;-55
2023/10/22 05:00:13;;;;;;;0.30;0.30;;;9.80;99.90;;;;;;5049849;28;20266;-55
2023/10/22 05:02:40;;;;;;;1.43;0.37;;;9.70;99.90;;;;;;5049486;28;20208;-55
2023/10/22 05:05:07;;;;;;;1.80;0.20;;;9.70;99.90;;;;;;5050029;28;20367;-56
2023/10/22 05:07:36;;;;;;;0.20;0.20;;;9.70;99.90;;;;;;5048500;28;20220;-55
2023/10/22 05:10:04;;;;;;;0.30;0.20;;;9.60;99.90;;;;;;5049054;28;20224;-55
2023/10/22 05:12:31;;;;;;;1.23;0.20;;;9.60;99.90;;;;;;5049594;28;20211;-56
2023/10/22 05:14:58;;;;;;;0.20;0.20;;;9.50;99.90;;;;;;5049493;28;20266;-55
2023/10/22 05:17:25;;;;;;;0.30;0.30;;;9.50;99.90;;;;;;5053368;28;20205;-55
2023/10/22 05:19:52;;;;;;;0.20;0.20;;;9.50;99.90;;;;;;5052478;28;20271;-55
2023/10/22 05:22:20;;;;;;;0.30;0.30;;;9.40;99.90;;;;;;5053507;28;20230;-55
2023/10/22 05:24:49;;;;;;;0.20;0.20;;;9.40;99.90;;;;;;5052857;28;20658;-56
2023/10/22 05:27:17;;;;;;;0.63;0.20;;;9.40;99.90;;;;;;5052643;28;20200;-55
2023/10/22 05:29:46;;;;;;;0.17;0.17;;;9.30;99.90;;;;;;5053464;28;20231;-55
2023/10/22 05:32:14;;;;;;;0.10;0.10;;;9.30;99.90;;;;;;5053365;28;20292;-55
2023/10/22 05:34:42;;;;;;;0.20;0.20;;;9.30;99.90;;;;;;5052539;28;20204;-55
2023/10/22 05:37:09;;;;;;;1.50;0.20;;;9.30;99.90;;;;;;5049836;28;20232;-55
2023/10/22 05:39:37;;;;;;;0.10;0.10;;;9.30;99.90;;;;;;5043535;28;20294;-55
2023/10/22 05:42:06;;;;;;;0.20;0.20;;;9.30;99.90;;;;;;5033322;28;20279;-55
2023/10/22 05:44:36;;;;;;;1.40;0.30;;;9.40;99.90;;;;;;5039355;28;20197;-56
2023/10/22 05:47:04;;;;;;;2.37;0.30;;;9.40;99.90;;;;;;5043261;28;20594;-56
2023/10/22 05:49:31;;;;;;;0.27;0.20;;;9.40;99.90;;;;;;5042771;28;20232;-55
2023/10/22 05:51:58;;;;;;;1.70;0.30;;;9.30;99.90;;;;;;5041130;28;20665;-56
2023/10/22 05:54:26;;;;;;;1.23;1.13;;;9.40;99.90;;;;;;5032866;28;20581;-55
2023/10/22 05:56:53;;;;;;;1.53;0.90;;;9.40;99.90;;;;;;5043930;28;20338;-56
2023/10/22 05:59:21;;;;;;;0.50;0.50;;;9.40;99.90;;;;;;5043805;28;20685;-55
2023/10/22 06:01:48;;;;;;;1.13;0.50;;;9.40;99.90;;;;;;5042309;28;20235;-55
2023/10/22 06:04:16;;;;;;;0.50;0.50;;;9.40;99.90;;;;;;5050610;28;20205;-55
2023/10/22 06:06:42;;;;;;;0.30;0.30;;;9.40;99.90;;;;;;5041991;28;20250;-55
2023/10/22 06:09:11;;;;;;;0.90;0.30;;;9.50;99.90;;;;;;5042164;28;20228;-55
2023/10/22 06:11:39;;;;;;;0.40;0.30;;;9.60;99.90;;;;;;5034395;28;20220;-56
2023/10/22 06:14:07;;;;;;;0.87;0.30;;;9.60;99.90;;;;;;5047730;28;20205;-56
2023/10/22 06:16:35;;;;;;;0.40;0.40;;;9.60;99.90;;;;;;5052216;28;20202;-55
2023/10/22 06:19:03;;;;;;;1.37;0.67;;;9.60;99.90;;;;;;5049701;28;20274;-55
2023/10/22 06:21:30;;;;;;;2.30;0.87;;;9.70;99.90;;;;;;5052011;28;20205;-56
2023/10/22 06:23:58;;;;;;;1.47;0.80;;;9.80;99.90;;;;;;5043517;28;20200;-55
2023/10/22 06:26:25;;;;;;;0.30;0.30;;;9.80;99.90;;;;;;5052258;28;20228;-55
2023/10/22 06:28:52;;;;;;;0.30;0.30;;;9.90;99.90;;;;;;5048668;28;20233;-56
2023/10/22 06:31:19;;;;;;;0.20;0.20;;;9.90;99.90;;;;;;5047540;28;20208;-55
2023/10/22 06:33:47;;;;;;;2.63;0.57;;;9.90;99.90;;;;;;5039004;28;20557;-56
2023/10/22 06:36:16;;;;;;;0.20;0.20;;;10.00;99.90;;;;;;5048829;28;20629;-56
2023/10/22 06:38:44;;;;;;;1.50;0.20;;;10.00;99.90;;;;;;5050662;28;20216;-55
2023/10/22 06:41:15;;;;;;;0.83;0.20;;;10.00;99.90;;;;;;5051757;28;20205;-55
2023/10/22 06:43:44;;;;;;;2.33;0.53;;;10.10;99.90;;;;;;5051324;28;20202;-56
2023/10/22 06:46:11;;;;;;;0.70;0.70;;;10.10;99.90;;;;;;5051840;28;20585;-55
2023/10/22 06:48:38;;;;;;;0.30;0.30;;;10.20;99.90;;;;;;5051446;28;20286;-55
2023/10/22 06:51:11;;;;;;;0.17;0.17;;;10.30;99.90;;;;;;5052207;28;20290;-55
2023/10/22 06:53:39;;;;;;;0.30;0.30;;;10.40;99.90;;;;;;5050787;28;20202;-55
2023/10/22 06:56:07;;;;;;;1.90;0.40;;;10.50;99.90;;;;;;5052207;28;20208;-56
2023/10/22 06:58:35;;;;;;;0.50;0.50;;;10.60;99.90;;;;;;5051475;28;20401;-55
2023/10/22 07:01:09;;;;;;;0.40;0.40;;;10.70;99.90;;;;;;5051768;28;20198;-56
2023/10/22 07:03:40;;;;;;;0.40;0.40;;;10.80;99.90;;;;;;5042983;28;20208;-56
2023/10/22 07:06:07;;;;;;;0.37;0.37;;;10.90;99.90;;;;;;5051412;28;20194;-56
2023/10/22 07:08:35;;;;;;;0.50;0.30;;;11.10;99.90;;;;;;5055809;28;20235;-55
2023/10/22 07:11:06;;;;;;;0.47;0.30;;;11.10;99.90;;;;;;5050926;28;20208;-55
2023/10/22 07:13:33;;;;;;;0.30;0.30;;;11.30;99.90;;;;;;5050579;28;20203;-55
2023/10/22 07:16:01;;;;;;;0.30;0.30;;;11.50;99.90;;;;;;5051295;28;20208;-55
2023/10/22 07:18:28;;;;;;;1.33;0.40;;;11.40;99.90;;;;;;5050819;28;20601;-56
2023/10/22 07:20:55;;;;;;;0.30;0.30;;;11.40;99.90;;;;;;5051179;28;20205;-55
2023/10/22 07:23:22;;;;;;;1.57;0.80;;;11.40;99.90;;;;;;5050561;28;20212;-56
2023/10/22 07:25:57;;;;;;;1.80;0.20;;;11.40;99.90;;;;;;5050366;28;20208;-56
2023/10/22 07:28:24;;;;;;;0.10;0.10;;;11.30;99.90;;;;;;5050802;28;20315;-55
2023/10/22 07:30:52;;;;;;;0.10;0.10;;;11.30;99.90;;;;;;5050554;28;20594;-56
2023/10/22 07:33:19;;;;;;;0.37;0.10;;;11.40;99.90;;;;;;5050218;28;20202;-56
2023/10/22 07:35:54;;;;;;;0.60;0.60;;;11.40;99.90;;;;;;5050557;28;20561;-55
2023/10/22 07:38:21;;;;;;;0.20;0.20;;;11.30;99.90;;;;;;5049848;28;20199;-56
2023/10/22 07:40:50;;;;;;;0.17;0.17;;;11.30;99.90;;;;;;5046720;28;20242;-56
2023/10/22 07:43:17;;;;;;;0.53;0.27;;;11.40;99.90;;;;;;5046421;28;20582;-55
2023/10/22 07:45:45;;;;;;;0.53;0.20;;;11.50;99.90;;;;;;5050366;28;20205;-56
2023/10/22 07:48:12;;;;;;;0.30;0.20;;;11.60;99.90;;;;;;5050629;28;20208;-56
2023/10/22 07:50:39;;;;;;;0.10;0.10;;;11.70;99.90;;;;;;5050331;28;20301;-56
2023/10/22 07:53:08;;;;;;;0.10;0.10;;;11.70;99.90;;;;;;5050142;28;20229;-55
2023/10/22 07:55:35;;;;;;;0.10;0.10;;;11.80;99.90;;;;;;5050059;28;20202;-55
2023/10/22 07:58:04;;;;;;;0.13;0.13;;;11.80;99.90;;;;;;5050567;28;20205;-55
2023/10/22 08:00:31;;;;;;;0.87;0.33;;;12.00;99.90;;;;;;5049460;28;20327;-56
2023/10/22 08:02:58;;;;;;;1.57;0.30;;;12.10;99.90;;;;;;5050250;28;20641;-55
2023/10/22 08:05:25;;;;;;;0.57;0.20;;;12.20;99.90;;;;;;5047683;28;20229;-56
2023/10/22 08:07:51;;;;;;;0.33;0.30;;;12.20;99.90;;;;;;5040930;28;20198;-55
2023/10/22 08:10:18;;;;;;;1.77;0.40;;;12.20;99.90;;;;;;5044657;28;20233;-56
2023/10/22 08:12:46;;;;;;;0.40;0.40;;;12.10;99.90;;;;;;5049364;28;20217;-56
2023/10/22 08:15:14;;;;;;;0.63;0.60;;;12.10;99.90;;;;;;5049963;28;20212;-56
2023/10/22 08:17:41;;;;;;;1.07;1.07;;;12.00;99.90;;;;;;5048062;28;20208;-56
2023/10/22 08:20:09;;;;;;;0.60;0.57;;;12.00;99.90;;;;;;5049913;28;20651;-56
2023/10/22 08:22:36;;;;;;;0.50;0.50;;;11.90;99.90;;;;;;5050622;28;20266;-56
2023/10/22 08:25:03;;;;;;;0.40;0.40;;;11.80;99.90;;;;;;5049801;28;20201;-56
2023/10/22 08:27:31;;;;;;;1.70;0.40;;;12.00;99.90;;;;;;5049601;28;20204;-56
2023/10/22 08:29:58;;;;;;;0.57;0.40;;;12.20;99.90;;;;;;5049969;28;20221;-56
2023/10/22 08:32:26;;;;;;;0.70;0.70;;;12.30;99.90;;;;;;5049916;28;20586;-55
2023/10/22 08:34:53;;;;;;;0.43;0.43;;;12.40;99.90;;;;;;5048671;28;20240;-56
2023/10/22 08:37:21;;;;;;;0.50;0.50;;;12.70;99.90;;;;;;5049783;28;20205;-56
2023/10/22 08:39:48;;;;;;;0.93;0.57;;;12.80;99.90;;;;;;5041369;28;20221;-56
2023/10/22 08:42:23;;;;;;;0.50;0.50;;;13.40;99.90;;;;;;5049968;28;20206;-55
2023/10/22 08:44:52;;;;;;;0.57;0.50;;;14.20;99.90;;;;;;5049366;28;20251;-56
2023/10/22 08:47:19;;;;;;;0.73;0.23;;;15.10;99.90;;;;;;5049651;28;20206;-56
2023/10/22 08:49:51;;;;;;;0.40;0.40;;;15.90;99.90;;;;;;5050895;28;20260;-56
2023/10/22 08:52:18;;;;;;;0.20;0.20;;;16.70;99.90;;;;;;5052988;28;20201;-56
2023/10/22 08:54:46;;;;;;;0.20;0.20;;;17.30;99.90;;;;;;5053473;28;20209;-56
2023/10/22 08:57:13;;;;;;;0.20;0.20;;;17.70;99.90;;;;;;5053824;28;20236;-56
2023/10/22 08:59:40;;;;;;;0.10;0.10;;;18.10;99.90;;;;;;5043950;28;20698;-56
2023/10/22 09:02:10;;;;;;;0.10;0.10;;;18.20;99.90;;;;;;5052965;28;20202;-56
2023/10/22 09:04:37;;;;;;;0.20;0.20;;;18.30;99.90;;;;;;5052596;28;20209;-56
2023/10/22 09:07:05;;;;;;;2.83;0.70;;;18.00;99.90;;;;;;5052953;28;20209;-56
2023/10/22 09:09:35;;;;;;;0.40;0.40;;;17.60;99.90;;;;;;5050196;28;20240;-56
2023/10/22 09:12:03;;;;;;;0.40;0.20;;;16.70;99.90;;;;;;5052004;28;20285;-56
2023/10/22 09:14:31;;;;;;;0.93;0.20;;;17.00;99.90;;;;;;5052071;28;20241;-56
2023/10/22 09:16:59;;;;;;;0.20;0.17;;;16.90;99.90;;;;;;5045316;28;20255;-56
2023/10/22 09:19:37;;;;;;;0.20;0.10;;;16.80;99.90;;;;;;5052729;28;20245;-57
2023/10/22 09:22:05;;;;;;;0.10;0.10;;;17.00;99.90;;;;;;5052777;28;20201;-56
2023/10/22 09:24:35;;;;;;;0.20;0.13;;;17.20;99.90;;;;;;5051008;28;20820;-56
2023/10/22 09:27:02;;;;;;;0.10;0.10;;;17.70;99.90;;;;;;5051550;28;20198;-56
2023/10/22 09:29:31;;;;;;;0.10;0.10;;;18.00;99.90;;;;;;5051619;28;20232;-56
2023/10/22 09:31:59;;;;;;;0.20;0.20;;;18.00;99.90;;;;;;5038836;28;20223;-57
2023/10/22 09:34:30;;;;;;;0.30;0.10;;;18.30;99.90;;;;;;5047926;28;20704;-56
2023/10/22 09:36:59;;;;;;;0.10;0.10;;;18.90;99.90;;;;;;5052280;28;20296;-56
2023/10/22 09:39:38;;;;;;;0.20;0.20;;;19.50;99.90;;;;;;5043742;28;20226;-56
2023/10/22 09:42:07;;;;;;;0.10;0.10;;;19.90;99.90;;;;;;5044486;28;21224;-56
2023/10/22 09:44:35;;;;;;;0.10;0.10;;;20.00;99.90;;;;;;5052268;28;20206;-57
2023/10/22 09:47:06;;;;;;;6.63;4.83;;;19.40;99.90;;;;;;5051373;28;20201;-56
2023/10/22 09:49:38;;;;;;;3.80;3.53;;;19.00;99.90;;;;;;5052583;28;20253;-56
2023/10/22 09:52:07;;;;;;;0.40;0.40;;;18.90;99.90;;;;;;5045199;28;20229;-57
2023/10/22 09:54:39;;;;;;;0.40;0.27;;;18.70;99.90;;;;;;5051908;28;20248;-56
2023/10/22 09:57:13;;;;;;;0.27;0.17;;;19.00;99.90;;;;;;5051640;28;20206;-56
2023/10/22 09:59:41;;;;;;;0.33;0.10;;;19.70;99.90;;;;;;5045122;28;20214;-56
2023/10/22 10:02:10;;;;;;;0.17;0.10;;;19.80;99.90;;;;;;5039232;28;20214;-56
2023/10/22 10:04:37;;;;;;;0.10;0.10;;;20.00;99.90;;;;;;5046932;28;20203;-56
2023/10/22 10:07:05;;;;;;;0.57;0.10;;;20.30;99.90;;;;;;5052569;28;20236;-56
2023/10/22 10:09:33;;;;;;;0.33;0.10;;;20.80;99.90;;;;;;5051790;28;20226;-57
2023/10/22 10:12:05;;;;;;;0.43;0.20;;;20.70;99.90;;;;;;5052278;28;20255;-56
2023/10/22 10:14:42;;;;;;;0.70;0.20;;;20.90;99.90;;;;;;5051226;28;20202;-56
2023/10/22 10:17:09;;;;;;;0.17;0.17;;;21.20;99.90;;;;;;5050714;28;20216;-57
2023/10/22 10:19:36;;;;;;;0.10;0.10;;;21.20;99.90;;;;;;5051260;28;20669;-57
2023/10/22 10:22:04;;;;;;;0.30;0.30;;;21.00;99.90;;;;;;5044014;22;20227;-59
2023/10/22 10:24:31;;;;;;;0.30;0.30;;;21.10;99.90;;;;;;5010523;28;20250;-58
2023/10/22 10:27:25;;;;;;;0.43;0.20;;;21.20;99.90;;;;;;5009035;28;20199;-59
2023/10/22 10:30:15;;;;;;;0.77;0.67;;;20.70;99.90;;;;;;5011353;28;20254;-58
2023/10/22 10:32:44;;;;;;;0.10;0.10;;;20.10;99.90;;;;;;4987211;28;20210;-58
2023/10/22 10:35:14;;;;;;;0.30;0.30;;;19.40;99.90;;;;;;4989733;28;20212;-58
2023/10/22 10:38:01;;;;;;;0.20;0.20;;;19.10;99.90;;;;;;4992318;28;20228;-58
2023/10/22 10:40:42;;;;;;;0.20;0.20;;;18.80;99.90;;;;;;4994833;28;20270;-58
2023/10/22 10:43:11;;;;;;;0.30;0.30;;;18.80;99.90;;;;;;4994234;28;20697;-58
2023/10/22 10:45:41;;;;;;;0.30;0.30;;;18.80;99.90;;;;;;4991628;28;20258;-58
2023/10/22 10:48:29;;;;;;;2.80;0.20;;;18.60;99.90;;;;;;4992403;28;20761;-58
2023/10/22 10:51:17;;;;;;;0.23;0.23;;;18.70;99.90;;;;;;4991901;28;20311;-59
2023/10/22 10:54:20;;;;;;;1.87;0.40;;;18.60;99.90;;;;;;4987902;28;20212;-58
2023/10/22 10:56:52;;;;;;;0.47;0.30;;;18.50;99.90;;;;;;4946852;28;20204;-59
2023/10/22 10:59:31;;;;;;;0.60;0.60;;;18.80;99.90;;;;;;4951018;28;20205;-58
2023/10/22 11:02:03;;;;;;;0.90;0.40;;;18.90;99.90;;;;;;4967527;28;20216;-58
2023/10/22 11:04:30;;;;;;;0.40;0.40;;;19.00;99.90;;;;;;4984501;28;20254;-58
2023/10/22 11:07:01;;;;;;;0.57;0.20;;;18.90;99.90;;;;;;4992057;28;20340;-58
2023/10/22 11:09:28;;;;;;;0.33;0.33;;;18.50;99.90;;;;;;4993159;28;20589;-58
2023/10/22 11:11:59;;;;;;;0.30;0.30;;;18.30;99.90;;;;;;4982223;28;20461;-59
2023/10/22 11:14:30;;;;;;;0.83;0.60;;;18.20;99.90;;;;;;4976953;28;20283;-59
2023/10/22 11:16:57;;;;;;;0.20;0.20;;;18.10;99.90;;;;;;4981469;28;20743;-59
2023/10/22 11:19:26;;;;;;;3.30;0.40;;;17.90;99.90;;;;;;4984789;28;20702;-59
2023/10/22 11:21:54;;;;;;;0.87;0.40;;;18.00;99.90;;;;;;4980463;28;20664;-59
2023/10/22 11:24:24;;;;;;;1.60;0.30;;;17.90;99.90;;;;;;4987302;28;20633;-59
2023/10/22 11:26:52;;;;;;;1.73;0.70;;;17.90;99.90;;;;;;5001217;28;20207;-59
2023/10/22 11:29:19;;;;;;;0.40;0.40;;;17.90;99.90;;;;;;4993225;28;20291;-59
2023/10/22 11:31:59;;;;;;;0.20;0.13;;;17.80;99.90;;;;;;4992390;28;20251;-59
2023/10/22 11:34:26;;;;;;;2.17;0.30;;;17.80;99.90;;;;;;4994112;28;20211;-59
2023/10/22 11:37:00;;;;;;;0.63;0.20;;;17.50;99.90;;;;;;5003581;28;20212;-59
2023/10/22 11:39:34;;;;;;;0.30;0.20;;;17.50;99.90;;;;;;4985304;28;20203;-59
2023/10/22 11:42:02;;;;;;;0.27;0.27;;;17.60;99.90;;;;;;4986551;28;20708;-59
2023/10/22 11:44:31;;;;;;;0.23;0.17;;;17.70;99.90;;;;;;4980966;28;20204;-59
2023/10/22 11:47:00;;;;;;;0.20;0.20;;;17.80;99.90;;;;;;4984729;28;20227;-66
2023/10/22 11:49:27;;;;;;;0.50;0.30;;;17.70;99.90;;;;;;4984443;28;20219;-66
2023/10/22 11:51:54;;;;;;;2.97;0.30;;;17.60;99.90;;;;;;4989161;28;20650;-66
2023/10/22 11:54:45;;;;;;;0.97;0.40;;;17.60;99.90;;;;;;4981107;28;20688;-66
2023/10/22 11:57:13;;;;;;;0.10;0.10;;;17.60;99.90;;;;;;4973118;28;20255;-68
2023/10/22 11:59:40;;;;;;;1.13;0.20;;;17.60;99.90;;;;;;4982529;28;20200;-68
2023/10/22 12:02:09;;;;;;;0.50;0.20;;;17.70;99.90;;;;;;4986524;28;20228;-67
2023/10/22 12:04:36;;;;;;;1.23;0.20;;;17.50;99.90;;;;;;4985248;28;20739;-68
2023/10/22 12:07:03;;;;;;;0.20;0.20;;;17.30;99.90;;;;;;4989759;28;20230;-59
2023/10/22 12:09:30;;;;;;;0.50;0.27;;;17.20;99.90;;;;;;4982130;28;20258;-59
2023/10/22 12:11:56;;;;;;;0.60;0.60;;;17.30;99.90;;;;;;4978602;28;20259;-59
2023/10/22 12:14:23;;;;;;;0.73;0.30;;;17.40;99.90;;;;;;4981173;28;20208;-59
2023/10/22 12:16:51;;;;;;;0.43;0.40;;;17.50;99.90;;;;;;4990542;28;20668;-59
2023/10/22 12:19:19;;;;;;;0.93;0.30;;;17.30;99.90;;;;;;4990294;28;20291;-59
2023/10/22 12:21:46;;;;;;;2.93;0.30;;;17.20;99.90;;;;;;4981567;28;20599;-59
2023/10/22 12:24:13;;;;;;;1.07;0.20;;;17.10;99.90;;;;;;4984032;28;20208;-59
2023/10/22 12:26:40;;;;;;;0.73;0.20;;;17.00;99.90;;;;;;4988514;28;20618;-59
2023/10/22 12:29:07;;;;;;;1.47;0.30;;;16.80;99.90;;;;;;4982339;28;20199;-59
2023/10/22 12:31:34;;;;;;;0.37;0.33;;;16.80;99.90;;;;;;4991538;28;20764;-59
2023/10/22 12:34:03;;;;;;;0.40;0.30;;;16.80;99.90;;;;;;4991659;28;20195;-59
2023/10/22 12:36:32;;;;;;;0.40;0.20;;;16.80;99.90;;;;;;4990814;28;20254;-59
2023/10/22 12:38:59;;;;;;;0.20;0.20;;;16.70;99.90;;;;;;4981523;28;20255;-59
2023/10/22 12:41:26;;;;;;;0.30;0.30;;;16.60;99.90;;;;;;4981855;28;20763;-59
2023/10/22 12:43:53;;;;;;;2.00;0.30;;;16.60;99.90;;;;;;4977256;28;20815;-58
2023/10/22 12:46:20;;;;;;;0.93;0.40;;;16.50;99.90;;;;;;4991925;28;20208;-59
2023/10/22 12:48:47;;;;;;;0.30;0.30;;;16.60;99.90;;;;;;4991232;28;20212;-58
2023/10/22 12:51:14;;;;;;;0.17;0.10;;;16.60;99.90;;;;;;4991684;28;20228;-59
2023/10/22 12:53:43;;;;;;;0.50;0.50;;;16.60;99.90;;;;;;4991430;28;20574;-59